createdAt,value
2022-08-17T00:01:29.967Z,57.95
2022-08-17T00:04:01.409Z,57.98
2022-08-17T00:06:31.896Z,58.52
2022-08-17T00:09:03.816Z,57.67
2022-08-17T00:11:39.576Z,58.59
2022-08-17T00:14:14.209Z,57.75
2022-08-17T00:16:56.436Z,57.89
2022-08-17T00:19:22.854Z,58.26
2022-08-17T00:22:29.402Z,57.79
2022-08-17T00:24:28.223Z,58.21
2022-08-17T00:26:58.281Z,57.86
2022-08-17T00:29:28.141Z,57.86
2022-08-17T00:31:57.920Z,58.21
2022-08-17T00:34:27.907Z,57.60
2022-08-17T00:36:57.772Z,58.12
2022-08-17T00:39:27.597Z,57.41
2022-08-17T00:41:57.489Z,57.62
2022-08-17T00:44:30.292Z,58.23
2022-08-17T00:46:58.919Z,58.02
2022-08-17T00:49:29.557Z,57.52
2022-08-17T00:52:04.017Z,57.52
2022-08-17T00:54:42.009Z,57.32
2022-08-17T00:57:12.654Z,57.20
2022-08-17T00:59:45.985Z,57.61
2022-08-17T01:02:19.986Z,57.88
2022-08-17T01:04:52.920Z,57.79
2022-08-17T01:07:27.171Z,57.93
2022-08-17T01:09:57.022Z,57.38
2022-08-17T01:12:28.454Z,57.70
2022-08-17T01:14:58.220Z,57.82
2022-08-17T01:17:28.473Z,57.89
2022-08-17T01:19:58.326Z,57.89
2022-08-17T01:22:28.442Z,58.20
2022-08-17T01:25:03.221Z,57.86
2022-08-17T01:27:33.425Z,58.09
2022-08-17T01:30:06.492Z,58.13
2022-08-17T01:32:37.969Z,58.10
2022-08-17T01:35:09.189Z,58.05
2022-08-17T01:37:42.289Z,57.65
2022-08-17T01:40:38.996Z,58.17
2022-08-17T01:43:14.818Z,57.66
2022-08-17T01:46:03.893Z,58.12
2022-08-17T01:48:21.851Z,58.14
2022-08-17T01:50:53.175Z,57.69
2022-08-17T01:53:25.998Z,57.75
2022-08-17T01:55:58.831Z,57.49
2022-08-17T01:58:28.554Z,58.33
2022-08-17T02:01:00.905Z,57.61
2022-08-17T02:03:31.823Z,57.76
2022-08-17T02:06:02.418Z,58.20
2022-08-17T02:08:37.319Z,58.32
2022-08-17T02:11:11.238Z,58.03
2022-08-17T02:13:39.992Z,58.03
2022-08-17T02:16:11.364Z,58.09
2022-08-17T02:18:41.347Z,57.90
2022-08-17T02:21:11.762Z,58.09
2022-08-17T02:23:44.720Z,58.64
2022-08-17T02:26:25.814Z,58.24
2022-08-17T02:28:46.396Z,58.83
2022-08-17T02:31:16.233Z,59.84
2022-08-17T02:33:46.014Z,59.84
2022-08-17T02:36:17.400Z,59.76
2022-08-17T02:38:47.656Z,59.76
2022-08-17T02:41:17.499Z,59.76
2022-08-17T02:43:47.282Z,59.76
2022-08-17T02:46:17.034Z,59.67
2022-08-17T02:48:47.203Z,59.90
2022-08-17T02:51:17.750Z,59.47
2022-08-17T02:53:47.615Z,59.86
2022-08-17T02:56:17.960Z,59.93
2022-08-17T02:58:47.454Z,60.20
2022-08-17T03:01:17.930Z,60.20
2022-08-17T03:03:47.895Z,60.83
2022-08-17T03:06:17.753Z,60.83
2022-08-17T03:08:47.599Z,60.66
2022-08-17T03:11:17.689Z,61.11
2022-08-17T03:13:47.727Z,60.82
2022-08-17T03:16:17.548Z,61.05
2022-08-17T03:18:47.343Z,61.17
2022-08-17T03:21:17.424Z,61.08
2022-08-17T03:23:47.203Z,61.08
2022-08-17T03:26:18.676Z,61.09
2022-08-17T03:28:49.144Z,61.28
2022-08-17T03:31:19.059Z,61.15
2022-08-17T03:33:49.198Z,61.13
2022-08-17T03:36:18.981Z,61.26
2022-08-17T03:38:48.795Z,60.50
2022-08-17T03:41:20.244Z,60.76
2022-08-17T03:43:50.334Z,60.61
2022-08-17T03:46:37.299Z,60.43
2022-08-17T03:49:26.481Z,60.41
2022-08-17T03:52:15.374Z,61.13
2022-08-17T03:55:03.957Z,61.36
2022-08-17T03:57:34.031Z,61.86
2022-08-17T04:00:06.041Z,62.29
2022-08-17T04:02:37.598Z,62.34
2022-08-17T04:05:09.321Z,63.10
2022-08-17T04:07:39.379Z,63.50
2022-08-17T04:10:11.595Z,63.14
2022-08-17T04:12:48.329Z,62.85
2022-08-17T04:15:18.424Z,62.28
2022-08-17T04:17:48.979Z,62.37
2022-08-17T04:20:21.310Z,62.64
2022-08-17T04:23:02.808Z,61.72
2022-08-17T04:25:36.380Z,62.01
2022-08-17T04:28:15.633Z,62.13
2022-08-17T04:30:40.591Z,62.07
2022-08-17T04:33:13.910Z,62.24
2022-08-17T04:35:46.229Z,62.31
2022-08-17T04:38:19.057Z,61.82
2022-08-17T04:41:06.876Z,62.30
2022-08-17T04:43:37.971Z,62.28
2022-08-17T04:46:12.671Z,62.08
2022-08-17T04:48:44.833Z,61.93
2022-08-17T04:51:29.969Z,61.93
2022-08-17T04:54:11.980Z,61.67
2022-08-17T04:56:42.523Z,61.53
2022-08-17T04:59:16.970Z,62.78
2022-08-17T05:01:49.378Z,62.81
2022-08-17T05:04:34.616Z,62.40
2022-08-17T05:06:55.593Z,62.22
2022-08-17T05:09:25.365Z,62.22
2022-08-17T05:11:56.278Z,61.60
2022-08-17T05:14:33.170Z,61.83
2022-08-17T05:16:57.613Z,61.43
2022-08-17T05:19:27.468Z,61.25
2022-08-17T05:21:57.248Z,61.12
2022-08-17T05:24:42.478Z,61.43
2022-08-17T05:27:02.606Z,61.41
2022-08-17T05:29:35.108Z,60.96
2022-08-17T05:32:38.526Z,60.94
2022-08-17T05:34:41.213Z,60.79
2022-08-17T05:37:11.006Z,60.46
2022-08-17T05:39:40.571Z,60.72
2022-08-17T05:42:11.593Z,60.72
2022-08-17T05:44:41.361Z,60.59
2022-08-17T05:47:11.219Z,61.14
2022-08-17T05:49:40.800Z,60.67
2022-08-17T05:52:36.873Z,60.52
2022-08-17T05:55:26.075Z,60.79
2022-08-17T05:57:59.834Z,60.29
2022-08-17T06:00:42.103Z,60.35
2022-08-17T06:03:46.354Z,59.95
2022-08-17T06:06:21.887Z,60.58
2022-08-17T06:09:12.747Z,59.92
2022-08-17T06:11:53.518Z,61.47
2022-08-17T06:14:29.183Z,61.47
2022-08-17T06:17:01.866Z,60.36
2022-08-17T06:19:48.645Z,60.90
2022-08-17T06:22:21.811Z,60.71
2022-08-17T06:25:18.629Z,60.89
2022-08-17T06:27:54.374Z,59.80
2022-08-17T06:30:27.439Z,60.20
2022-08-17T06:33:01.271Z,59.70
2022-08-17T06:35:43.711Z,59.17
2022-08-17T06:38:34.146Z,58.78
2022-08-17T06:41:09.345Z,59.08
2022-08-17T06:43:48.215Z,58.61
2022-08-17T06:46:41.727Z,59.24
2022-08-17T06:49:29.435Z,57.50
2022-08-17T06:52:42.107Z,57.50
2022-08-17T06:55:09.362Z,58.56
2022-08-17T06:57:46.350Z,57.52
2022-08-17T07:00:19.210Z,57.27
2022-08-17T07:03:00.619Z,57.09
2022-08-17T07:05:36.694Z,57.09
2022-08-17T07:08:29.153Z,56.37
2022-08-17T07:11:00.853Z,56.51
2022-08-17T07:13:51.327Z,55.51
2022-08-17T07:16:27.388Z,55.42
2022-08-17T07:18:59.492Z,57.47
2022-08-17T07:21:40.671Z,56.82
2022-08-17T07:24:30.832Z,57.06
2022-08-17T07:27:15.528Z,57.01
2022-08-17T07:29:53.993Z,56.09
2022-08-17T07:32:26.539Z,57.75
2022-08-17T07:35:06.551Z,57.54
2022-08-17T07:37:39.059Z,57.33
2022-08-17T07:40:19.941Z,56.02
2022-08-17T07:43:11.492Z,55.41
2022-08-17T07:46:13.876Z,55.89
2022-08-17T07:48:46.416Z,54.80
2022-08-17T07:51:22.259Z,55.05
2022-08-17T07:53:52.223Z,54.72
2022-08-17T07:56:40.329Z,54.42
2022-08-17T07:59:20.470Z,54.73
2022-08-17T08:02:00.597Z,54.78
2022-08-17T08:04:59.741Z,54.87
2022-08-17T08:07:21.568Z,55.65
2022-08-17T08:10:13.804Z,55.92
2022-08-17T08:12:46.647Z,55.69
2022-08-17T08:15:22.518Z,55.34
2022-08-17T08:18:01.008Z,55.43
2022-08-17T08:20:51.556Z,54.66
2022-08-17T08:23:42.645Z,54.57
2022-08-17T08:26:26.311Z,54.98
2022-08-17T08:29:08.320Z,53.84
2022-08-17T08:32:16.279Z,53.84
2022-08-17T08:35:01.792Z,53.88
2022-08-17T08:37:40.513Z,53.88
2022-08-17T08:40:13.899Z,54.79
2022-08-17T08:43:22.208Z,55.18
2022-08-17T08:45:57.710Z,58.63
2022-08-17T08:48:53.215Z,66.63
2022-08-17T08:51:41.848Z,69.74
2022-08-17T08:54:32.687Z,74.30
2022-08-17T08:57:32.890Z,76.53
2022-08-17T09:00:19.294Z,77.12
2022-08-17T09:03:04.079Z,77.56
2022-08-17T09:05:45.541Z,78.40
2022-08-17T09:08:38.065Z,78.53
2022-08-17T09:12:02.393Z,78.07
2022-08-17T09:14:43.256Z,77.02
2022-08-17T09:17:21.970Z,77.39
2022-08-17T09:20:00.404Z,76.81
2022-08-17T09:22:38.839Z,75.23
2022-08-17T09:25:11.853Z,74.95
2022-08-17T09:27:53.175Z,73.18
2022-08-17T09:30:23.698Z,71.77
2022-08-17T09:33:02.818Z,70.53
2022-08-17T09:35:37.036Z,69.14
2022-08-17T09:38:32.523Z,69.14
2022-08-17T09:41:13.384Z,67.99
2022-08-17T09:43:46.210Z,66.34
2022-08-17T09:46:27.886Z,65.02
2022-08-17T09:49:09.807Z,66.08
2022-08-17T09:51:50.927Z,65.85
2022-08-17T09:54:41.767Z,65.02
2022-08-17T09:57:28.638Z,63.66
2022-08-17T09:59:58.128Z,64.28
2022-08-17T10:02:40.347Z,62.57
2022-08-17T10:05:21.763Z,62.57
2022-08-17T10:08:07.951Z,62.30
2022-08-17T10:10:52.492Z,62.92
2022-08-17T10:13:29.880Z,62.22
2022-08-17T10:16:04.245Z,61.90
2022-08-17T10:18:37.720Z,62.06
2022-08-17T10:21:28.019Z,61.15
2022-08-17T10:24:41.142Z,62.95
2022-08-17T10:27:15.830Z,62.95
2022-08-17T10:29:51.201Z,61.64
2022-08-17T10:32:41.976Z,62.69
2022-08-17T10:35:17.069Z,62.76
2022-08-17T10:38:06.533Z,63.43
2022-08-17T10:40:57.413Z,64.10
2022-08-17T10:44:36.630Z,65.70
2022-08-17T10:46:54.122Z,64.70
2022-08-17T10:49:33.850Z,64.68
2022-08-17T10:52:12.257Z,63.65
2022-08-17T10:54:47.755Z,63.21
2022-08-17T10:57:32.182Z,63.24
2022-08-17T11:00:27.611Z,63.91
2022-08-17T11:02:58.577Z,64.55
2022-08-17T11:05:50.227Z,64.36
2022-08-17T11:08:48.537Z,66.64
2022-08-17T11:11:34.560Z,66.50
2022-08-17T11:14:23.977Z,67.95
2022-08-17T11:17:13.005Z,67.95
2022-08-17T11:20:05.084Z,69.19
2022-08-17T11:22:40.785Z,69.65
2022-08-17T11:25:18.745Z,68.84
2022-08-17T11:27:53.682Z,69.29
2022-08-17T11:30:43.527Z,69.15
2022-08-17T11:33:36.802Z,68.75
2022-08-17T11:36:31.333Z,69.42
2022-08-17T11:39:10.079Z,69.13
2022-08-17T11:41:49.833Z,69.13
2022-08-17T11:44:31.159Z,68.82
2022-08-17T11:47:38.094Z,67.80
2022-08-17T11:50:30.133Z,68.71
2022-08-17T11:53:01.207Z,68.71
2022-08-17T11:55:39.538Z,68.79
2022-08-17T11:58:31.653Z,69.79
2022-08-17T12:01:03.875Z,68.47
2022-08-17T12:03:38.400Z,68.33
2022-08-17T12:06:30.399Z,69.28
2022-08-17T12:09:13.571Z,67.79
2022-08-17T12:12:13.263Z,68.90
2022-08-17T12:15:05.730Z,67.94
2022-08-17T12:17:09.933Z,68.17
2022-08-17T12:19:43.106Z,67.86
2022-08-17T12:22:29.347Z,67.86
2022-08-17T12:25:04.886Z,66.87
2022-08-17T12:27:46.160Z,66.38
2022-08-17T12:30:16.158Z,66.94
2022-08-17T12:32:48.196Z,68.41
2022-08-17T12:35:34.223Z,68.41
2022-08-17T12:38:26.888Z,69.48
2022-08-17T12:40:39.233Z,70.25
2022-08-17T12:43:12.059Z,69.28
2022-08-17T12:45:41.982Z,68.82
2022-08-17T12:48:14.781Z,68.87
2022-08-17T12:50:47.072Z,68.33
2022-08-17T12:53:20.157Z,67.48
2022-08-17T12:55:51.065Z,67.76
2022-08-17T12:58:24.920Z,68.20
2022-08-17T13:01:09.480Z,67.81
2022-08-17T13:03:42.733Z,67.81
2022-08-17T13:06:14.954Z,68.39
2022-08-17T13:08:47.941Z,67.97
2022-08-17T13:11:24.582Z,67.97
2022-08-17T13:13:56.582Z,68.07
2022-08-17T13:16:33.343Z,68.08
2022-08-17T13:19:20.092Z,68.14
2022-08-17T13:21:54.737Z,68.09
2022-08-17T13:24:38.027Z,68.45
2022-08-17T13:27:10.001Z,68.76
2022-08-17T13:29:44.090Z,68.99
2022-08-17T13:32:23.045Z,69.85
2022-08-17T13:35:14.324Z,69.39
2022-08-17T13:37:36.268Z,69.89
2022-08-17T13:40:14.898Z,69.58
2022-08-17T13:42:52.754Z,69.44
2022-08-17T13:45:38.893Z,69.58
2022-08-17T13:48:24.669Z,70.79
2022-08-17T13:51:00.429Z,73.01
2022-08-17T13:53:36.296Z,74.81
2022-08-17T13:56:37.249Z,75.04
2022-08-17T13:58:55.187Z,75.32
2022-08-17T14:01:30.773Z,75.69
2022-08-17T14:04:03.552Z,74.98
2022-08-17T14:06:53.209Z,75.23
2022-08-17T14:09:07.558Z,74.65
2022-08-17T14:11:38.081Z,73.41
2022-08-17T14:14:10.000Z,71.49
2022-08-17T14:16:42.181Z,71.00
2022-08-17T14:19:14.009Z,69.63
2022-08-17T14:21:46.676Z,69.03
2022-08-17T14:24:24.921Z,69.86
2022-08-17T14:26:55.687Z,69.89
2022-08-17T14:29:27.876Z,69.36
2022-08-17T14:31:59.598Z,70.71
2022-08-17T14:34:29.256Z,70.29
2022-08-17T14:36:59.046Z,69.38
2022-08-17T14:39:28.805Z,67.47
2022-08-17T14:41:58.614Z,67.47
2022-08-17T14:44:28.212Z,67.35
2022-08-17T14:46:58.072Z,66.29
2022-08-17T14:49:27.976Z,66.62
2022-08-17T14:51:57.549Z,67.15
2022-08-17T14:54:33.581Z,67.15
2022-08-17T14:57:02.847Z,65.51
2022-08-17T14:59:31.677Z,64.67
2022-08-17T15:02:02.571Z,65.22
2022-08-17T15:04:32.633Z,63.16
2022-08-17T15:07:03.610Z,63.43
2022-08-17T15:09:35.763Z,62.81
2022-08-17T15:12:06.995Z,63.57
2022-08-17T15:14:37.642Z,64.70
2022-08-17T15:17:07.435Z,65.59
2022-08-17T15:19:37.208Z,65.12
2022-08-17T15:22:27.236Z,64.58
2022-08-17T15:24:59.007Z,64.58
2022-08-17T15:27:32.608Z,64.99
2022-08-17T15:29:59.972Z,64.93
2022-08-17T15:32:35.239Z,64.47
2022-08-17T15:35:11.651Z,63.85
2022-08-17T15:37:41.851Z,64.97
2022-08-17T15:40:13.398Z,65.20
2022-08-17T15:42:43.241Z,64.63
2022-08-17T15:45:14.159Z,65.88
2022-08-17T15:47:44.020Z,66.06
2022-08-17T15:50:13.535Z,65.34
2022-08-17T15:52:44.878Z,65.52
2022-08-17T15:55:17.214Z,65.87
2022-08-17T15:57:47.855Z,66.56
2022-08-17T16:00:17.495Z,66.79
2022-08-17T16:03:20.308Z,66.67
2022-08-17T16:05:25.304Z,66.29
2022-08-17T16:07:55.979Z,66.84
2022-08-17T16:10:34.575Z,67.31
2022-08-17T16:12:58.609Z,67.31
2022-08-17T16:15:29.813Z,68.00
2022-08-17T16:17:59.940Z,68.06
2022-08-17T16:20:30.766Z,68.38
2022-08-17T16:23:00.911Z,69.16
2022-08-17T16:25:47.218Z,68.91
2022-08-17T16:28:07.654Z,69.50
2022-08-17T16:30:38.227Z,69.50
2022-08-17T16:33:11.188Z,70.63
2022-08-17T16:35:41.902Z,69.99
2022-08-17T16:38:12.466Z,69.99
2022-08-17T16:40:42.491Z,69.98
2022-08-17T16:43:12.277Z,71.64
2022-08-17T16:45:42.221Z,70.91
2022-08-17T16:48:11.803Z,70.95
2022-08-17T16:50:42.454Z,70.95
2022-08-17T16:53:17.800Z,71.73
2022-08-17T16:55:51.930Z,71.16
2022-08-17T16:58:21.780Z,70.53
2022-08-17T17:00:51.756Z,70.66
2022-08-17T17:03:24.581Z,70.38
2022-08-17T17:06:09.074Z,70.13
2022-08-17T17:08:59.877Z,70.14
2022-08-17T17:11:33.593Z,70.77
2022-08-17T17:14:07.760Z,70.89
2022-08-17T17:16:46.566Z,71.08
2022-08-17T17:19:34.429Z,70.48
2022-08-17T17:22:07.306Z,69.53
2022-08-17T17:25:07.415Z,69.81
2022-08-17T17:27:48.754Z,69.44
2022-08-17T17:30:27.541Z,69.10
2022-08-17T17:33:06.296Z,69.32
2022-08-17T17:35:43.462Z,69.54
2022-08-17T17:38:22.024Z,68.83
2022-08-17T17:41:02.181Z,71.25
2022-08-17T17:43:38.946Z,71.25
2022-08-17T17:46:26.867Z,70.67
2022-08-17T17:48:38.093Z,70.54
2022-08-17T17:51:13.488Z,70.75
2022-08-17T17:54:08.168Z,70.93
2022-08-17T17:56:44.512Z,70.61
2022-08-17T17:59:30.036Z,70.61
2022-08-17T18:02:11.767Z,70.67
2022-08-17T18:04:47.049Z,71.26
2022-08-17T18:07:34.759Z,71.33
2022-08-17T18:10:29.533Z,71.14
2022-08-17T18:13:12.796Z,71.05
2022-08-17T18:15:51.583Z,71.58
2022-08-17T18:18:31.617Z,72.03
2022-08-17T18:21:07.179Z,72.02
2022-08-17T18:23:36.763Z,71.97
2022-08-17T18:26:08.091Z,71.73
2022-08-17T18:28:41.652Z,71.78
2022-08-17T18:31:14.467Z,72.05
2022-08-17T18:33:49.764Z,72.46
2022-08-17T18:36:28.002Z,72.50
2022-08-17T18:39:24.179Z,71.94
2022-08-17T18:41:59.035Z,72.25
2022-08-17T18:44:32.633Z,72.81
2022-08-17T18:47:17.481Z,72.85
2022-08-17T18:49:51.788Z,72.44
2022-08-17T18:52:29.414Z,72.18
2022-08-17T18:55:14.164Z,71.93
2022-08-17T18:57:52.402Z,71.98
2022-08-17T19:00:40.462Z,72.27
2022-08-17T19:03:25.378Z,72.00
2022-08-17T19:05:58.206Z,71.80
2022-08-17T19:08:33.711Z,71.99
2022-08-17T19:11:23.621Z,72.48
2022-08-17T19:14:02.212Z,72.62
2022-08-17T19:16:35.051Z,72.68
2022-08-17T19:19:28.767Z,72.83
2022-08-17T19:22:01.336Z,73.19
2022-08-17T19:24:34.423Z,73.03
2022-08-17T19:27:22.194Z,73.47
2022-08-17T19:30:08.353Z,73.53
2022-08-17T19:32:37.828Z,73.53
2022-08-17T19:35:16.688Z,74.36
2022-08-17T19:37:57.391Z,74.09
2022-08-17T19:40:54.688Z,73.41
2022-08-17T19:43:24.979Z,74.11
2022-08-17T19:46:07.052Z,75.45
2022-08-17T19:48:42.723Z,74.53
2022-08-17T19:51:42.479Z,74.87
2022-08-17T19:54:19.332Z,74.87
2022-08-17T19:56:57.823Z,74.73
2022-08-17T19:59:51.761Z,74.35
2022-08-17T20:02:30.112Z,74.31
2022-08-17T20:05:02.653Z,74.51
2022-08-17T20:07:51.755Z,75.07
2022-08-17T20:10:33.559Z,75.75
2022-08-17T20:13:07.055Z,76.08
2022-08-17T20:15:39.120Z,75.31
2022-08-17T20:18:17.225Z,75.19
2022-08-17T20:21:02.950Z,75.29
2022-08-17T20:23:55.193Z,75.56
2022-08-17T20:26:30.308Z,75.56
2022-08-17T20:29:08.704Z,75.64
2022-08-17T20:31:53.671Z,75.33
2022-08-17T20:34:30.788Z,75.33
2022-08-17T20:37:15.325Z,74.95
2022-08-17T20:39:48.354Z,74.18
2022-08-17T20:42:27.772Z,74.18
2022-08-17T20:45:19.502Z,73.92
2022-08-17T20:48:22.127Z,74.35
2022-08-17T20:50:34.458Z,74.36
2022-08-17T20:53:08.135Z,74.50
2022-08-17T20:55:51.585Z,75.17
2022-08-17T20:58:22.963Z,75.22
2022-08-17T21:01:01.469Z,75.38
2022-08-17T21:03:50.930Z,75.33
2022-08-17T21:06:17.065Z,75.60
2022-08-17T21:08:58.707Z,76.57
2022-08-17T21:11:56.766Z,75.74
2022-08-17T21:14:36.791Z,77.08
2022-08-17T21:17:31.725Z,76.48
2022-08-17T21:20:14.451Z,76.92
2022-08-17T21:23:05.232Z,76.92
2022-08-17T21:26:10.852Z,76.88
2022-08-17T21:29:31.936Z,76.83
2022-08-17T21:31:58.328Z,76.96
2022-08-17T21:34:33.313Z,78.08
2022-08-17T21:37:23.300Z,78.30
2022-08-17T21:39:59.099Z,78.33
2022-08-17T21:42:34.587Z,79.09
2022-08-17T21:45:18.842Z,78.31
2022-08-17T21:48:09.374Z,77.76
2022-08-17T21:50:41.552Z,77.76
2022-08-17T21:53:14.734Z,77.76
2022-08-17T21:55:46.292Z,77.85
2022-08-17T21:58:21.930Z,78.17
2022-08-17T22:00:54.484Z,78.43
2022-08-17T22:03:26.365Z,78.83
2022-08-17T22:05:56.156Z,77.88
2022-08-17T22:08:26.337Z,77.88
2022-08-17T22:11:03.002Z,77.36
2022-08-17T22:13:33.342Z,76.96
2022-08-17T22:16:28.154Z,76.70
2022-08-17T22:18:41.741Z,77.62
2022-08-17T22:21:11.897Z,77.15
2022-08-17T22:24:04.872Z,77.03
2022-08-17T22:27:00.174Z,77.01
2022-08-17T22:29:54.360Z,76.87
2022-08-17T22:32:40.144Z,76.95
2022-08-17T22:35:21.774Z,76.88
2022-08-17T22:37:51.820Z,77.06
2022-08-17T22:40:30.386Z,77.10
2022-08-17T22:43:03.443Z,77.57
2022-08-17T22:45:33.459Z,77.12
2022-08-17T22:48:03.677Z,76.56
2022-08-17T22:50:33.618Z,76.85
2022-08-17T22:53:23.761Z,77.21
2022-08-17T22:56:14.322Z,77.05
2022-08-17T22:59:10.597Z,76.30
2022-08-17T23:01:41.523Z,76.30
2022-08-17T23:04:36.341Z,75.89
2022-08-17T23:07:09.143Z,75.89
2022-08-17T23:09:39.309Z,76.42
2022-08-17T23:12:14.766Z,76.78
2022-08-17T23:14:46.155Z,76.65
2022-08-17T23:17:16.310Z,76.73
2022-08-17T23:19:46.160Z,77.11
2022-08-17T23:22:15.642Z,76.96
2022-08-17T23:24:50.432Z,76.14
2022-08-17T23:27:22.015Z,76.14
2022-08-17T23:29:51.797Z,76.84
2022-08-17T23:32:22.149Z,76.81
2022-08-17T23:34:52.269Z,76.67
2022-08-17T23:37:22.075Z,76.04
2022-08-17T23:39:51.947Z,75.19
2022-08-17T23:42:21.834Z,76.08
2022-08-17T23:44:51.571Z,76.44
2022-08-17T23:47:21.351Z,76.35
2022-08-17T23:49:54.206Z,76.04
2022-08-17T23:52:22.852Z,75.94
2022-08-17T23:54:52.640Z,76.35
2022-08-17T23:57:33.803Z,76.10
2022-08-17T23:59:54.582Z,75.57
